createdAt,value
2022-07-31T00:00:57.549Z,97827.25
2022-07-31T00:02:00.621Z,97826.44
2022-07-31T00:03:04.914Z,97828.09
2022-07-31T00:04:08.060Z,97829.88
2022-07-31T00:05:12.583Z,97828.25
2022-07-31T00:06:15.664Z,97822.16
2022-07-31T00:07:19.821Z,97825.63
2022-07-31T00:08:22.889Z,97836.97
2022-07-31T00:09:49.294Z,97828.09
2022-07-31T00:10:56.585Z,97827.25
2022-07-31T00:11:59.939Z,97830.09
2022-07-31T00:13:04.023Z,97828.25
2022-07-31T00:14:07.090Z,97836.38
2022-07-31T00:15:12.813Z,97826.84
2022-07-31T00:16:17.621Z,97830.50
2022-07-31T00:17:22.018Z,97838.19
2022-07-31T00:18:25.168Z,97828.47
2022-07-31T00:19:29.443Z,97827.44
2022-07-31T00:20:32.695Z,97840.63
2022-07-31T00:21:36.970Z,97831.09
2022-07-31T00:22:40.210Z,97831.91
2022-07-31T00:23:44.572Z,97833.72
2022-07-31T00:24:47.767Z,97831.31
2022-07-31T00:27:12.174Z,97832.28
2022-07-31T00:28:15.455Z,97822.56
2022-07-31T00:29:21.961Z,97834.09
2022-07-31T00:30:25.531Z,97837.75
2022-07-31T00:31:31.397Z,97823.97
2022-07-31T00:32:34.680Z,97828.41
2022-07-31T00:33:38.765Z,97833.88
2022-07-31T00:34:48.208Z,97827.63
2022-07-31T00:35:52.369Z,97832.88
2022-07-31T00:36:55.487Z,97833.50
2022-07-31T00:38:25.674Z,97826.59
2022-07-31T00:39:24.941Z,97820.50
2022-07-31T00:40:28.130Z,97831.66
2022-07-31T00:41:42.626Z,97828.22
2022-07-31T00:42:46.135Z,97832.69
2022-07-31T00:43:50.506Z,97829.03
2022-07-31T00:44:53.691Z,97828.03
2022-07-31T00:45:59.580Z,97829.66
2022-07-31T00:47:04.981Z,97832.28
2022-07-31T00:48:09.614Z,97837.75
2022-07-31T00:49:14.094Z,97828.84
2022-07-31T00:50:23.288Z,97827.66
2022-07-31T00:51:27.647Z,97822.56
2022-07-31T00:52:30.723Z,97833.53
2022-07-31T00:53:35.058Z,97822.81
2022-07-31T00:54:38.259Z,97823.78
2022-07-31T00:55:51.047Z,97819.53
2022-07-31T00:57:05.971Z,97818.72
2022-07-31T00:58:09.573Z,97813.66
2022-07-31T00:59:13.945Z,97818.91
2022-07-31T01:00:21.188Z,97819.94
2022-07-31T01:01:48.375Z,97821.94
2022-07-31T01:02:53.141Z,97823.75
2022-07-31T01:03:57.673Z,97824.56
2022-07-31T01:05:00.743Z,97822.94
2022-07-31T01:06:05.222Z,97825.59
2022-07-31T01:07:08.673Z,97817.47
2022-07-31T01:08:13.239Z,97821.94
2022-07-31T01:09:17.059Z,97817.31
2022-07-31T01:10:26.630Z,97818.91
2022-07-31T01:11:36.803Z,97812.19
2022-07-31T01:12:55.299Z,97816.47
2022-07-31T01:14:02.361Z,97823.75
2022-07-31T01:15:10.178Z,97815.84
2022-07-31T01:16:15.381Z,97820.09
2022-07-31T01:17:18.912Z,97812.19
2022-07-31T01:18:25.959Z,97812.19
2022-07-31T01:19:38.128Z,97808.75
2022-07-31T01:20:48.642Z,97807.13
2022-07-31T01:22:02.430Z,97809.75
2022-07-31T01:23:34.823Z,97809.75
2022-07-31T01:25:09.779Z,97808.50
2022-07-31T01:26:24.476Z,97814.59
2022-07-31T01:27:55.770Z,97816.22
2022-07-31T01:29:16.723Z,97816.22
2022-07-31T01:30:30.442Z,97815.25
2022-07-31T01:31:37.442Z,97805.50
2022-07-31T01:32:46.534Z,97820.31
2022-07-31T01:33:55.529Z,97809.75
2022-07-31T01:35:03.191Z,97813.22
2022-07-31T01:36:21.310Z,97803.47
2022-07-31T01:37:39.890Z,97807.72
2022-07-31T01:38:46.645Z,97807.72
2022-07-31T01:39:55.990Z,97811.19
2022-07-31T01:41:02.149Z,97814.66
2022-07-31T01:42:08.625Z,97812.03
2022-07-31T01:43:16.760Z,97808.38
2022-07-31T01:44:23.759Z,97806.34
2022-07-31T01:45:28.321Z,97807.34
2022-07-31T01:46:37.297Z,97810.00
2022-07-31T01:47:45.991Z,97811.00
2022-07-31T01:48:50.630Z,97803.09
2022-07-31T01:49:56.549Z,97814.47
2022-07-31T01:51:01.887Z,97809.38
2022-07-31T01:52:08.138Z,97810.19
2022-07-31T01:53:13.905Z,97804.13
2022-07-31T01:54:20.087Z,97803.09
2022-07-31T01:55:25.221Z,97801.28
2022-07-31T01:56:31.581Z,97799.44
2022-07-31T01:57:36.345Z,97800.47
2022-07-31T01:58:42.213Z,97802.91
2022-07-31T02:00:03.697Z,97803.72
2022-07-31T02:01:27.096Z,97805.75
2022-07-31T02:02:32.913Z,97806.53
2022-07-31T02:03:43.599Z,97799.44
2022-07-31T02:04:52.100Z,97809.78
2022-07-31T02:05:55.529Z,97806.34
2022-07-31T02:07:01.842Z,97808.16
2022-07-31T02:08:06.939Z,97800.47
2022-07-31T02:09:13.170Z,97800.47
2022-07-31T02:10:16.577Z,97803.28
2022-07-31T02:11:22.684Z,97801.03
2022-07-31T02:12:32.307Z,97800.41
2022-07-31T02:13:39.341Z,97801.41
2022-07-31T02:14:43.394Z,97801.59
2022-07-31T02:15:50.380Z,97801.81
2022-07-31T02:16:56.871Z,97792.25
2022-07-31T02:18:14.283Z,97799.53
2022-07-31T02:19:31.268Z,97799.75
2022-07-31T02:20:34.799Z,97797.09
2022-07-31T02:21:39.682Z,97795.50
2022-07-31T02:22:42.780Z,97794.84
2022-07-31T02:23:46.922Z,97796.22
2022-07-31T02:24:49.952Z,97794.81
2022-07-31T02:25:54.162Z,97804.72
2022-07-31T02:27:00.854Z,97792.53
2022-07-31T02:28:08.361Z,97807.75
2022-07-31T02:29:19.703Z,97798.22
2022-07-31T02:30:24.342Z,97796.75
2022-07-31T02:31:33.117Z,97798.78
2022-07-31T02:32:36.610Z,97799.94
2022-07-31T02:33:41.579Z,97799.13
2022-07-31T02:34:45.364Z,97798.31
2022-07-31T02:35:50.972Z,97796.69
2022-07-31T02:36:54.182Z,97793.59
2022-07-31T02:38:00.092Z,97802.53
2022-07-31T02:39:03.683Z,97796.63
2022-07-31T02:40:13.781Z,97801.25
2022-07-31T02:41:17.793Z,97797.00
2022-07-31T02:42:23.083Z,97794.75
2022-07-31T02:43:27.004Z,97801.03
2022-07-31T02:44:34.990Z,97800.41
2022-07-31T02:45:38.853Z,97803.25
2022-07-31T02:46:45.282Z,97792.25
2022-07-31T02:47:48.651Z,97791.59
2022-07-31T02:48:54.194Z,97803.97
2022-07-31T02:49:59.153Z,97799.09
2022-07-31T02:51:03.368Z,97805.38
2022-07-31T02:52:07.424Z,97802.09
2022-07-31T02:53:11.721Z,97798.66
2022-07-31T02:54:15.935Z,97800.47
2022-07-31T02:55:20.012Z,97795.41
2022-07-31T02:56:24.480Z,97800.84
2022-07-31T02:57:28.580Z,97800.84
2022-07-31T02:58:32.991Z,97800.03
2022-07-31T02:59:37.252Z,97801.84
2022-07-31T03:00:41.542Z,97796.56
2022-07-31T03:01:47.289Z,97793.31
2022-07-31T03:02:51.692Z,97803.06
2022-07-31T03:03:54.752Z,97800.59
2022-07-31T03:04:58.865Z,97805.84
2022-07-31T03:06:02.114Z,97803.41
2022-07-31T03:07:06.434Z,97799.34
2022-07-31T03:08:10.027Z,97802.16
2022-07-31T03:09:17.832Z,97800.53
2022-07-31T03:10:22.850Z,97803.34
2022-07-31T03:11:42.212Z,97794.00
2022-07-31T03:12:47.722Z,97799.25
2022-07-31T03:13:55.062Z,97807.16
2022-07-31T03:14:58.632Z,97800.28
2022-07-31T03:16:03.353Z,97796.00
2022-07-31T03:17:08.909Z,97798.66
2022-07-31T03:18:15.139Z,97795.19
2022-07-31T03:19:19.150Z,97799.66
2022-07-31T03:20:24.155Z,97799.66
2022-07-31T03:21:27.423Z,97799.66
2022-07-31T03:22:31.822Z,97799.66
2022-07-31T03:23:36.705Z,97804.94
2022-07-31T03:24:56.363Z,97804.94
2022-07-31T03:26:01.174Z,97800.47
2022-07-31T03:27:05.455Z,97806.91
2022-07-31T03:28:09.373Z,97804.28
2022-07-31T03:29:43.328Z,97803.47
2022-07-31T03:30:37.082Z,97810.56
2022-07-31T03:31:41.561Z,97805.28
2022-07-31T03:32:46.212Z,97793.94
2022-07-31T03:33:50.389Z,97799.22
2022-07-31T03:34:53.465Z,97800.03
2022-07-31T03:35:58.180Z,97801.66
2022-07-31T03:37:02.376Z,97798.84
2022-07-31T03:38:39.015Z,97812.81
2022-07-31T03:39:31.251Z,97798.19
2022-07-31T03:40:37.625Z,97803.47
2022-07-31T03:41:41.772Z,97802.66
2022-07-31T03:42:45.321Z,97801.84
2022-07-31T03:43:49.854Z,97803.66
2022-07-31T03:44:57.009Z,97799.22
2022-07-31T03:46:00.592Z,97815.81
2022-07-31T03:47:05.641Z,97810.34
2022-07-31T03:48:10.711Z,97810.56
2022-07-31T03:49:15.954Z,97810.56
2022-07-31T03:50:19.883Z,97810.56
2022-07-31T03:51:24.297Z,97809.75
2022-07-31T03:52:27.915Z,97809.75
2022-07-31T03:53:33.211Z,97811.38
2022-07-31T03:54:37.352Z,97811.38
2022-07-31T03:55:56.493Z,97801.03
2022-07-31T03:57:00.040Z,97814.38
2022-07-31T03:58:04.932Z,97805.69
2022-07-31T03:59:11.694Z,97811.09
2022-07-31T04:00:20.699Z,97808.66
2022-07-31T04:01:24.293Z,97813.75
2022-07-31T04:02:32.839Z,97808.47
2022-07-31T04:04:01.449Z,97806.03
2022-07-31T04:05:10.838Z,97813.31
2022-07-31T04:06:17.161Z,97818.75
2022-07-31T04:07:21.031Z,97812.69
2022-07-31T04:08:25.183Z,97817.31
2022-07-31T04:09:28.267Z,97809.41
2022-07-31T04:10:33.271Z,97809.41
2022-07-31T04:11:36.415Z,97817.31
2022-07-31T04:12:42.653Z,97810.44
2022-07-31T04:13:45.813Z,97812.06
2022-07-31T04:14:49.965Z,97813.06
2022-07-31T04:15:54.981Z,97817.50
2022-07-31T04:16:58.372Z,97813.06
2022-07-31T04:18:03.613Z,97812.06
2022-07-31T04:19:14.049Z,97814.69
2022-07-31T04:20:18.772Z,97817.50
2022-07-31T04:21:21.817Z,97812.59
2022-07-31T04:22:26.061Z,97818.06
2022-07-31T04:23:32.507Z,97818.88
2022-07-31T04:25:07.593Z,97815.44
2022-07-31T04:26:31.274Z,97824.31
2022-07-31T04:27:48.502Z,97818.44
2022-07-31T04:28:53.122Z,97819.44
2022-07-31T04:29:57.970Z,97815.19
2022-07-31T04:31:00.997Z,97822.06
2022-07-31T04:32:07.871Z,97820.88
2022-07-31T04:33:26.140Z,97818.22
2022-07-31T04:34:31.793Z,97817.41
2022-07-31T04:35:34.842Z,97819.25
2022-07-31T04:36:39.829Z,97821.06
2022-07-31T04:37:48.039Z,97822.69
2022-07-31T04:38:53.420Z,97830.59
2022-07-31T04:39:58.543Z,97824.31
2022-07-31T04:41:01.722Z,97820.88
2022-07-31T04:42:10.880Z,97821.88
2022-07-31T04:43:14.427Z,97830.78
2022-07-31T04:44:18.573Z,97832.78
2022-07-31T04:45:31.934Z,97826.06
2022-07-31T04:46:35.062Z,97834.97
2022-07-31T04:47:39.356Z,97833.34
2022-07-31T04:48:43.564Z,97837.78
2022-07-31T04:49:51.114Z,97834.31
2022-07-31T04:50:54.213Z,97835.31
2022-07-31T04:51:58.750Z,97833.69
2022-07-31T04:53:01.791Z,97831.06
2022-07-31T04:54:12.283Z,97830.44
2022-07-31T04:55:15.431Z,97835.06
2022-07-31T04:56:36.258Z,97835.88
2022-07-31T04:57:40.522Z,97838.69
2022-07-31T04:58:44.460Z,97842.78
2022-07-31T05:00:00.572Z,97845.44
2022-07-31T05:01:08.455Z,97845.22
2022-07-31T05:02:13.927Z,97847.88
2022-07-31T05:03:16.984Z,97839.31
2022-07-31T05:04:21.929Z,97847.06
2022-07-31T05:05:26.392Z,97851.13
2022-07-31T05:06:37.871Z,97843.88
2022-07-31T05:07:42.283Z,97848.31
2022-07-31T05:08:52.094Z,97847.13
2022-07-31T05:09:57.752Z,97851.56
2022-07-31T05:11:19.271Z,97848.13
2022-07-31T05:12:23.434Z,97856.22
2022-07-31T05:13:26.533Z,97850.13
2022-07-31T05:14:30.666Z,97858.66
2022-07-31T05:15:33.758Z,97851.38
2022-07-31T05:16:38.321Z,97852.03
2022-07-31T05:17:41.433Z,97853.66
2022-07-31T05:19:14.582Z,97857.31
2022-07-31T05:20:50.156Z,97863.91
2022-07-31T05:22:09.552Z,97857.03
2022-07-31T05:23:16.461Z,97859.00
2022-07-31T05:24:39.431Z,97869.53
2022-07-31T05:25:44.313Z,97871.81
2022-07-31T05:26:48.493Z,97872.63
2022-07-31T05:27:51.522Z,97867.38
2022-07-31T05:28:58.537Z,97870.00
2022-07-31T05:30:02.812Z,97861.28
2022-07-31T05:31:08.630Z,97871.81
2022-07-31T05:32:12.909Z,97861.28
2022-07-31T05:33:16.404Z,97877.91
2022-07-31T05:34:21.021Z,97879.53
2022-07-31T05:35:25.894Z,97879.34
2022-07-31T05:36:31.752Z,97874.06
2022-07-31T05:37:35.833Z,97880.19
2022-07-31T05:38:40.874Z,97888.88
2022-07-31T05:40:05.853Z,97876.69
2022-07-31T05:41:28.591Z,97888.88
2022-07-31T05:42:41.821Z,97891.69
2022-07-31T05:44:00.290Z,97890.88
2022-07-31T05:45:10.469Z,97889.06
2022-07-31T05:46:14.741Z,97889.88
2022-07-31T05:47:18.834Z,97894.16
2022-07-31T05:48:22.143Z,97884.44
2022-07-31T05:49:27.086Z,97890.53
2022-07-31T05:50:31.512Z,97893.34
2022-07-31T05:51:37.031Z,97894.97
2022-07-31T05:52:40.270Z,97891.53
2022-07-31T05:54:07.724Z,97890.53
2022-07-31T05:55:30.033Z,97898.59
2022-07-31T05:56:53.387Z,97902.41
2022-07-31T05:58:02.592Z,97898.50
2022-07-31T05:59:07.296Z,97903.75
2022-07-31T06:00:12.083Z,97892.63
2022-07-31T06:01:18.527Z,97897.22
2022-07-31T06:02:21.746Z,97905.13
2022-07-31T06:03:52.690Z,97899.44
2022-07-31T06:05:19.883Z,97904.03
2022-07-31T06:06:23.074Z,97902.59
2022-07-31T06:07:28.994Z,97912.31
2022-07-31T06:08:34.081Z,97902.59
2022-07-31T06:09:37.752Z,97907.88
2022-07-31T06:10:42.064Z,97914.94
2022-07-31T06:11:45.463Z,97922.19
2022-07-31T06:12:50.414Z,97915.50
2022-07-31T06:13:54.810Z,97920.91
2022-07-31T06:15:05.273Z,97916.81
2022-07-31T06:16:15.047Z,97917.63
2022-07-31T06:17:18.192Z,97922.06
2022-07-31T06:18:22.373Z,97917.63
2022-07-31T06:19:26.240Z,97927.34
2022-07-31T06:20:30.752Z,97913.56
2022-07-31T06:21:35.253Z,97917.00
2022-07-31T06:22:40.678Z,97922.88
2022-07-31T06:23:45.043Z,97918.44
2022-07-31T06:25:11.762Z,97925.72
2022-07-31T06:26:18.376Z,97918.97
2022-07-31T06:27:33.211Z,97922.44
2022-07-31T06:28:47.968Z,97928.53
2022-07-31T06:29:53.913Z,97920.78
2022-07-31T06:30:58.083Z,97926.88
2022-07-31T06:32:01.719Z,97923.25
2022-07-31T06:33:08.333Z,97925.09
2022-07-31T06:34:15.170Z,97925.09
2022-07-31T06:35:22.371Z,97926.88
2022-07-31T06:36:44.014Z,97929.34
2022-07-31T06:37:53.640Z,97923.06
2022-07-31T06:38:56.837Z,97926.72
2022-07-31T06:40:03.802Z,97926.53
2022-07-31T06:41:40.053Z,97923.69
2022-07-31T06:43:06.743Z,97917.81
2022-07-31T06:44:34.181Z,97932.97
2022-07-31T06:45:56.523Z,97934.13
2022-07-31T06:47:18.863Z,97929.69
2022-07-31T06:48:32.095Z,97934.75
2022-07-31T06:49:44.655Z,97931.16
2022-07-31T06:50:49.151Z,97932.97
2022-07-31T06:52:13.633Z,97938.25
2022-07-31T06:53:19.197Z,97932.97
2022-07-31T06:54:22.343Z,97930.16
2022-07-31T06:55:32.288Z,97934.22
2022-07-31T06:56:36.841Z,97936.34
2022-07-31T06:57:41.180Z,97932.72
2022-07-31T06:58:44.422Z,97940.00
2022-07-31T06:59:49.506Z,97941.97
2022-07-31T07:00:54.103Z,97936.84
2022-07-31T07:01:57.263Z,97940.69
2022-07-31T07:03:01.486Z,97936.56
2022-07-31T07:04:04.704Z,97930.88
2022-07-31T07:05:09.600Z,97937.31
2022-07-31T07:06:13.152Z,97939.94
2022-07-31T07:07:20.025Z,97947.00
2022-07-31T07:08:27.806Z,97938.50
2022-07-31T07:09:30.853Z,97942.28
2022-07-31T07:10:34.931Z,97934.59
2022-07-31T07:11:58.238Z,97939.19
2022-07-31T07:13:03.695Z,97936.56
2022-07-31T07:14:11.566Z,97949.72
2022-07-31T07:15:15.825Z,97943.63
2022-07-31T07:16:18.923Z,97941.00
2022-07-31T07:17:28.579Z,97945.28
2022-07-31T07:18:32.313Z,97933.78
2022-07-31T07:19:41.443Z,97937.22
2022-07-31T07:20:45.582Z,97932.75
2022-07-31T07:21:49.802Z,97936.84
2022-07-31T07:22:53.055Z,97940.94
2022-07-31T07:24:14.191Z,97932.03
2022-07-31T07:25:41.174Z,97937.69
2022-07-31T07:26:47.152Z,97943.91
2022-07-31T07:27:51.391Z,97940.47
2022-07-31T07:28:54.413Z,97939.47
2022-07-31T07:29:58.664Z,97929.78
2022-07-31T07:31:01.997Z,97933.84
2022-07-31T07:32:07.347Z,97941.75
2022-07-31T07:33:10.510Z,97943.38
2022-07-31T07:34:14.722Z,97941.41
2022-07-31T07:35:17.873Z,97944.66
2022-07-31T07:36:28.021Z,97944.47
2022-07-31T07:37:40.603Z,97945.94
2022-07-31T07:38:45.023Z,97941.31
2022-07-31T07:39:50.564Z,97942.63
2022-07-31T07:40:53.716Z,97947.06
2022-07-31T07:41:57.821Z,97941.16
2022-07-31T07:43:03.135Z,97942.50
2022-07-31T07:44:08.733Z,97939.41
2022-07-31T07:45:13.984Z,97941.22
2022-07-31T07:46:17.201Z,97937.78
2022-07-31T07:47:27.141Z,97945.47
2022-07-31T07:48:52.276Z,97946.06
2022-07-31T07:50:10.793Z,97949.59
2022-07-31T07:51:34.807Z,97949.31
2022-07-31T07:53:05.179Z,97943.38
2022-07-31T07:54:27.769Z,97952.09
2022-07-31T07:55:52.027Z,97939.75
2022-07-31T07:57:16.371Z,97943.84
2022-07-31T07:58:38.958Z,97948.75
2022-07-31T08:00:04.063Z,97950.22
2022-07-31T08:01:26.943Z,97952.66
2022-07-31T08:02:35.730Z,97950.84
2022-07-31T08:03:48.307Z,97950.31
2022-07-31T08:04:54.651Z,97949.97
2022-07-31T08:05:58.822Z,97955.25
2022-07-31T08:07:04.324Z,97960.50
2022-07-31T08:08:11.746Z,97960.84
2022-07-31T08:09:24.823Z,97960.84
2022-07-31T08:10:47.535Z,97958.88
2022-07-31T08:11:58.271Z,97955.72
2022-07-31T08:13:24.272Z,97953.41
2022-07-31T08:14:54.623Z,97962.94
2022-07-31T08:16:17.304Z,97962.31
2022-07-31T08:17:25.588Z,97954.78
2022-07-31T08:18:30.202Z,97966.31
2022-07-31T08:19:34.282Z,97967.78
2022-07-31T08:20:38.430Z,97967.41
2022-07-31T08:21:43.155Z,97969.84
2022-07-31T08:22:46.293Z,97973.28
2022-07-31T08:23:50.705Z,97970.50
2022-07-31T08:24:53.779Z,97968.28
2022-07-31T08:25:57.993Z,97966.31
2022-07-31T08:27:39.604Z,97974.84
2022-07-31T08:28:50.557Z,97982.13
2022-07-31T08:30:00.413Z,97968.69
2022-07-31T08:31:06.345Z,97984.00
2022-07-31T08:32:19.766Z,97976.63
2022-07-31T08:33:44.046Z,97978.97
2022-07-31T08:34:47.036Z,97978.34
2022-07-31T08:35:51.402Z,97978.53
2022-07-31T08:36:55.814Z,97975.09
2022-07-31T08:38:01.995Z,97978.53
2022-07-31T08:39:07.094Z,97979.34
2022-07-31T08:40:27.146Z,97979.34
2022-07-31T08:41:32.999Z,97989.69
2022-07-31T08:42:38.679Z,97978.53
2022-07-31T08:44:01.648Z,97980.34
2022-07-31T08:45:07.988Z,97973.25
2022-07-31T08:46:15.754Z,97985.59
2022-07-31T08:47:23.133Z,97978.34
2022-07-31T08:48:29.783Z,97983.59
2022-07-31T08:49:34.347Z,97979.16
2022-07-31T08:50:41.608Z,97978.16
2022-07-31T08:51:55.862Z,97982.25
2022-07-31T08:53:18.731Z,97978.66
2022-07-31T08:54:35.782Z,97977.47
2022-07-31T08:55:56.992Z,97983.19
2022-07-31T08:57:05.370Z,97989.94
2022-07-31T08:58:20.463Z,97977.19
2022-07-31T08:59:24.618Z,97982.66
2022-07-31T09:00:29.043Z,97984.28
2022-07-31T09:01:34.876Z,97981.47
2022-07-31T09:02:39.878Z,97977.84
2022-07-31T09:04:00.431Z,97986.72
2022-07-31T09:05:05.345Z,97983.00
2022-07-31T09:06:09.990Z,97988.81
2022-07-31T09:07:15.822Z,97988.81
2022-07-31T09:08:21.167Z,97990.63
2022-07-31T09:09:51.226Z,97984.38
2022-07-31T09:10:51.072Z,97989.66
2022-07-31T09:11:55.452Z,97987.00
2022-07-31T09:13:20.781Z,97984.53
2022-07-31T09:14:28.268Z,97986.19
2022-07-31T09:15:34.534Z,97986.34
2022-07-31T09:16:46.248Z,97990.00
2022-07-31T09:17:54.018Z,97993.78
2022-07-31T09:18:58.694Z,97996.41
2022-07-31T09:20:02.942Z,97991.81
2022-07-31T09:21:10.854Z,97998.69
2022-07-31T09:22:21.301Z,98002.97
2022-07-31T09:23:27.961Z,97988.97
2022-07-31T09:24:36.936Z,97998.19
2022-07-31T09:25:53.463Z,97997.56
2022-07-31T09:27:05.456Z,97999.19
2022-07-31T09:28:11.862Z,97997.38
2022-07-31T09:29:17.502Z,97992.78
2022-07-31T09:30:22.190Z,98003.97
2022-07-31T09:31:34.391Z,97999.16
2022-07-31T09:32:57.522Z,97997.16
2022-07-31T09:34:30.821Z,97999.25
2022-07-31T09:35:55.065Z,97999.25
2022-07-31T09:37:09.479Z,97992.38
2022-07-31T09:38:33.565Z,97998.78
2022-07-31T09:40:13.886Z,97997.97
2022-07-31T09:41:58.087Z,98002.63
2022-07-31T09:43:25.813Z,98006.25
2022-07-31T09:44:40.480Z,98003.25
2022-07-31T09:45:48.004Z,98001.25
2022-07-31T09:46:52.755Z,98003.53
2022-07-31T09:48:08.478Z,97999.34
2022-07-31T09:49:16.090Z,98001.00
2022-07-31T09:50:25.705Z,98007.09
2022-07-31T09:51:38.481Z,98004.25
2022-07-31T09:52:42.822Z,98005.69
2022-07-31T09:53:47.079Z,98000.28
2022-07-31T09:55:17.026Z,98002.25
2022-07-31T09:56:30.786Z,98003.44
2022-07-31T09:57:37.864Z,98002.78
2022-07-31T09:58:44.363Z,98005.00
2022-07-31T09:59:50.182Z,98006.16
2022-07-31T10:00:56.731Z,97999.25
2022-07-31T10:02:01.702Z,98004.88
2022-07-31T10:03:06.241Z,98005.72
2022-07-31T10:04:12.790Z,98004.72
2022-07-31T10:05:17.321Z,98008.78
2022-07-31T10:06:21.175Z,98012.69
2022-07-31T10:07:32.471Z,98013.31
2022-07-31T10:08:54.313Z,98016.22
2022-07-31T10:10:05.275Z,98009.81
2022-07-31T10:11:28.172Z,98003.72
2022-07-31T10:12:52.560Z,98007.72
2022-07-31T10:13:58.761Z,98010.97
2022-07-31T10:15:06.920Z,98016.88
2022-07-31T10:16:11.116Z,98012.44
2022-07-31T10:17:15.705Z,98017.72
2022-07-31T10:18:58.498Z,98022.78
2022-07-31T10:20:18.432Z,98017.72
2022-07-31T10:21:43.363Z,98029.69
2022-07-31T10:22:53.437Z,98022.63
2022-07-31T10:24:02.429Z,98028.69
2022-07-31T10:25:06.923Z,98030.16
2022-07-31T10:26:11.445Z,98028.31
2022-07-31T10:27:16.764Z,98031.63
2022-07-31T10:28:21.283Z,98033.25
2022-07-31T10:29:24.853Z,98030.06
2022-07-31T10:30:30.501Z,98026.63
2022-07-31T10:31:36.021Z,98027.59
2022-07-31T10:32:40.430Z,98023.19
2022-07-31T10:34:07.764Z,98033.25
2022-07-31T10:35:30.971Z,98037.41
2022-07-31T10:36:43.398Z,98031.06
2022-07-31T10:38:20.185Z,98029.31
2022-07-31T10:39:37.880Z,98025.25
2022-07-31T10:40:51.657Z,98029.50
2022-07-31T10:41:58.722Z,98030.78
2022-07-31T10:43:21.873Z,98031.41
2022-07-31T10:44:56.977Z,98029.78
2022-07-31T10:46:30.154Z,98030.41
2022-07-31T10:47:57.393Z,98036.31
2022-07-31T10:49:20.059Z,98036.47
2022-07-31T10:50:36.642Z,98039.94
2022-07-31T10:51:54.693Z,98043.22
2022-07-31T10:53:18.722Z,98040.41
2022-07-31T10:54:45.150Z,98040.41
2022-07-31T10:56:11.088Z,98041.06
2022-07-31T10:57:56.203Z,98044.50
2022-07-31T10:59:29.781Z,98040.88
2022-07-31T11:01:09.004Z,98050.59
2022-07-31T11:02:35.683Z,98048.50
2022-07-31T11:04:07.642Z,98042.41
2022-07-31T11:05:31.219Z,98047.28
2022-07-31T11:07:21.427Z,98047.75
2022-07-31T11:08:45.489Z,98047.75
2022-07-31T11:10:11.580Z,98048.38
2022-07-31T11:11:34.854Z,98042.78
2022-07-31T11:13:01.431Z,98046.41
2022-07-31T11:14:36.261Z,98045.13
2022-07-31T11:16:04.482Z,98048.28
2022-07-31T11:17:17.609Z,98047.47
2022-07-31T11:19:04.066Z,98048.28
2022-07-31T11:20:19.126Z,98049.13
2022-07-31T11:21:38.547Z,98048.50
2022-07-31T11:22:43.301Z,98057.53
2022-07-31T11:23:56.471Z,98058.94
2022-07-31T11:25:07.382Z,98053.81
2022-07-31T11:26:10.555Z,98050.56
2022-07-31T11:27:14.701Z,98050.56
2022-07-31T11:28:21.640Z,98055.63
2022-07-31T11:29:59.106Z,98057.44
2022-07-31T11:30:57.203Z,98055.81
2022-07-31T11:32:02.311Z,98054.81
2022-07-31T11:33:06.480Z,98058.06
2022-07-31T11:34:13.633Z,98058.72
2022-07-31T11:35:31.575Z,98058.56
2022-07-31T11:36:35.783Z,98067.63
2022-07-31T11:37:56.961Z,98059.75
2022-07-31T11:39:02.687Z,98059.75
2022-07-31T11:40:09.444Z,98057.53
2022-07-31T11:41:15.071Z,98064.09
2022-07-31T11:42:19.141Z,98058.63
2022-07-31T11:43:25.998Z,98061.28
2022-07-31T11:44:33.032Z,98059.00
2022-07-31T11:45:48.064Z,98056.38
2022-07-31T11:46:52.680Z,98054.75
2022-07-31T11:48:12.159Z,98060.66
2022-07-31T11:49:44.153Z,98061.28
2022-07-31T11:50:51.759Z,98065.91
2022-07-31T11:52:02.500Z,98057.38
2022-07-31T11:53:07.322Z,98062.00
2022-07-31T11:54:12.519Z,98065.63
2022-07-31T11:55:17.980Z,98060.19
2022-07-31T11:56:23.328Z,98055.72
2022-07-31T11:57:50.717Z,98051.13
2022-07-31T11:58:58.452Z,98056.19
2022-07-31T12:00:26.749Z,98057.66
2022-07-31T12:01:33.807Z,98057.66
2022-07-31T12:02:45.908Z,98060.13
2022-07-31T12:03:53.922Z,98056.28
2022-07-31T12:05:03.250Z,98053.50
2022-07-31T12:06:10.157Z,98059.19
2022-07-31T12:07:15.042Z,98064.31
2022-07-31T12:08:20.748Z,98062.31
2022-07-31T12:10:02.230Z,98060.47
2022-07-31T12:10:50.291Z,98057.22
2022-07-31T12:11:53.491Z,98056.41
2022-07-31T12:12:57.602Z,98063.50
2022-07-31T12:14:00.872Z,98066.13
2022-07-31T12:15:16.559Z,98067.09
2022-07-31T12:16:21.507Z,98069.09
2022-07-31T12:17:24.553Z,98064.66
2022-07-31T12:18:29.558Z,98067.09
2022-07-31T12:19:37.481Z,98073.22
2022-07-31T12:20:53.795Z,98068.09
2022-07-31T12:21:58.392Z,98075.38
2022-07-31T12:23:02.925Z,98085.09
2022-07-31T12:24:12.893Z,98079.00
2022-07-31T12:25:16.050Z,98082.63
2022-07-31T12:26:24.916Z,98076.53
2022-07-31T12:27:28.044Z,98080.19
2022-07-31T12:28:32.210Z,98091.53
2022-07-31T12:29:37.846Z,98082.63
2022-07-31T12:30:41.653Z,98079.00
2022-07-31T12:31:47.518Z,98079.00
2022-07-31T12:32:50.921Z,98083.47
2022-07-31T12:33:55.343Z,98092.19
2022-07-31T12:35:02.585Z,98085.09
2022-07-31T12:36:15.361Z,98092.81
2022-07-31T12:37:22.512Z,98091.00
2022-07-31T12:38:45.761Z,98091.00
2022-07-31T12:40:00.730Z,98093.00
2022-07-31T12:41:05.916Z,98096.78
2022-07-31T12:42:10.405Z,98094.16
2022-07-31T12:43:14.959Z,98095.78
2022-07-31T12:44:22.385Z,98095.63
2022-07-31T12:45:35.512Z,98091.19
2022-07-31T12:46:38.963Z,98093.00
2022-07-31T12:47:43.763Z,98088.53
2022-07-31T12:48:48.779Z,98086.72
2022-07-31T12:49:54.008Z,98090.00
2022-07-31T12:50:57.133Z,98093.44
2022-07-31T12:52:04.412Z,98085.53
2022-07-31T12:53:08.353Z,98088.34
2022-07-31T12:54:14.490Z,98087.53
2022-07-31T12:55:18.083Z,98093.63
2022-07-31T12:56:23.405Z,98091.81
2022-07-31T12:57:26.955Z,98091.81
2022-07-31T12:58:31.712Z,98096.25
2022-07-31T12:59:37.387Z,98087.53
2022-07-31T13:00:43.030Z,98091.66
2022-07-31T13:01:47.451Z,98090.47
2022-07-31T13:02:53.113Z,98085.81
2022-07-31T13:04:00.616Z,98088.63
2022-07-31T13:05:07.461Z,98089.25
2022-07-31T13:06:11.811Z,98092.09
2022-07-31T13:07:16.532Z,98090.09
2022-07-31T13:08:22.691Z,98091.91
2022-07-31T13:09:25.853Z,98092.75
2022-07-31T13:10:32.172Z,98095.38
2022-07-31T13:11:48.103Z,98089.25
2022-07-31T13:12:54.216Z,98094.53
2022-07-31T13:14:14.558Z,98088.44
2022-07-31T13:15:22.782Z,98096.00
2022-07-31T13:16:26.702Z,98103.72
2022-07-31T13:17:31.160Z,98095.00
2022-07-31T13:18:35.847Z,98100.25
2022-07-31T13:19:40.882Z,98098.28
2022-07-31T13:20:44.113Z,98098.09
2022-07-31T13:21:50.255Z,98104.00
2022-07-31T13:22:56.152Z,98101.81
2022-07-31T13:24:00.805Z,98097.19
2022-07-31T13:25:05.672Z,98093.94
2022-07-31T13:26:09.949Z,98092.91
2022-07-31T13:27:13.314Z,98099.00
2022-07-31T13:28:17.400Z,98106.91
2022-07-31T13:29:21.251Z,98101.00
2022-07-31T13:30:25.316Z,98108.09
2022-07-31T13:31:29.967Z,98096.09
2022-07-31T13:32:34.242Z,98097.91
2022-07-31T13:33:37.925Z,98099.53
2022-07-31T13:34:42.320Z,98097.09
2022-07-31T13:35:46.365Z,98099.53
2022-07-31T13:36:49.641Z,98095.09
2022-07-31T13:37:54.603Z,98096.91